Архив погоды в Бабушкине

Метеограмма Бабушкин
Среда, 23 Августа
Время местн. Темп Ветер Видим Явления Облачность нижн/средн/верх Атм. давл. Влжн Точка росы ВНГО R Сост. почвы Tg s
Напр Скр Прв ур.ст ур.м изм
14:00 +16.7° З,С-З 3 - 20 км - преимущественно облачно 720 760 -1 62% +9.5° 1 км - - - -
11:00 +14.3° З,С-З 5 - 20 км - преимущественно облачно 721 761 -0.3 77% +10.4° 1 км - - - -
08:00 +12.4° З,С-З 6 - 10 км - облачно 721 762 -0.5 79% +8.9° 1 км 0 Влажная (без луж) - -
05:00 +12.5° З,С-З 5 - 10 км - облачно 722 762 -0.5 79% +8.9° 1 км - - - -
02:00 +12.2° З,С-З 3 - 10 км - облачно 722 763 -0.5 80% +8.9° 1 км - - - -
Вторник, 22 Августа
Время местн. Темп Ветер Видим Явления Облачность нижн/средн/верх Атм. давл. Влжн Точка росы ВНГО R Сост. почвы Tg s
Напр Скр Прв ур.ст ур.м изм
23:00 +13.2° З,С-З 4 - 10 км - облачно 723 763 +0.2 75% +8.8° 1 км - - - -
20:00 +13.4° З,С-З 5 10 20 км - облачно 722 763 -0.4 69% +7.9° 1 км 0 - - -
17:00 +14.1° З,С-З 6 11 20 км - преимущественно облачно 723 763 -0.5 64% +7.3° 1 км - - - -
14:00 +13.8° З,С-З 7 10 20 км - преимущественно облачно 723 764 -0.2 63% +7° 1 км - - - -
11:00 +13.4° З,С-З 9 15 20 км - преимущественно облачно 723 764 +0.4 63% +6.5° 1 км - - - -
08:00 +12.4° З,С-З 9 15 20 км - облачно 723 764 +0.9 70% +7° 1 км 0 Влажная (без луж) +10° -
05:00 +12.4° З,С-З 9 14 20 км - облачно 722 763 +0.7 73% +7.8° 1 км - - - -
02:00 +14.2° З,С-З 7 12 20 км - облачно 721 762 +0.8 69% +8.7° 1 км - - - -
Понедельник, 21 Августа
Время местн. Темп Ветер Видим Явления Облачность нижн/средн/верх Атм. давл. Влжн Точка росы ВНГО R Сост. почвы Tg s
Напр Скр Прв ур.ст ур.м изм
23:00 +15.2° З,С-З 6 12 20 км - облачно 721 761 +1.6 69% +9.5° 1 км - - - -
20:00 +15° З,С-З 5 - 20 км - облачно 719 759 +0.7 73% +10.3° 1 км 4 - - -
17:00 +14.8° З,С-З 5 12 20 км - облачно 718 759 +0.5 73% +10° 1 км - - - -
14:00 +13.7° З,С-З 6 13 10 км небо без изменений {ливневые осадки} облачно 718 758 +0.8 82% +10.7° 1 км - - - -
11:00 +13.6° З,С-З 7 11 10 км ливневый дождь облачно 717 758 +1.2 85% +11.2° 1 км - - - -
08:00 +14.8° З,С-З 8 13 10 км - облачно 716 756 +1.1 83% +11.9° 1 км 0 Влажная (без луж) +13° -
05:00 +15° З,С-З 7 13 10 км - преимущественно облачно 715 755 +1 81% +11.7° 1 км - - - -
02:00 +15.9° З,С-З 8 13 10 км - облачно 714 754 +1 75% +11.5° 1 км - - - -
Воскресенье, 20 Августа
Время местн. Темп Ветер Видим Явления Облачность нижн/средн/верх Атм. давл. Влжн Точка росы ВНГО R Сост. почвы Tg s
Напр Скр Прв ур.ст ур.м изм
23:00 +17.4° З,С-З 8 12 10 км - облачно 713 753 +0.7 69% +11.7° 1 км - - - -
20:00 +18.2° З,С-З 6 - 10 км небо без изменений {ливневые осадки} облачно 712 752 -0.3 61% +10.6° 1 км 1 - - -
17:00 +17.9° З,С-З 4 - 10 км небо без изменений {ливневые осадки} облачно 713 752 -0.5 67% +11.6° 1 км - - - -
14:00 +15° З,С-З 5 10 10 км слабый ливневый дождь облачно 713 753 -0.6 82% +12° 1 км - - - -
11:00 +15.6° З,С-З 5 - 10 км небо без изменений {ливневые осадки} облачно 714 754 -0.2 79% +11.9° 1 км - - - -